createdAt,value
2019-03-15T00:28:26.690Z,6.91
2019-03-15T00:28:27.263Z,6.87
2019-03-15T00:28:27.863Z,6.89
2019-03-15T00:28:28.464Z,6.98
2019-03-15T00:28:29.067Z,6.98
2019-03-15T00:28:29.661Z,6.87
2019-03-15T00:28:30.263Z,6.84
2019-03-15T00:28:30.862Z,6.83
2019-03-15T00:29:24.345Z,6.81
2019-03-15T00:29:24.917Z,6.99
2019-03-15T00:29:25.537Z,6.98
2019-03-15T00:29:26.115Z,6.91
2019-03-15T00:29:26.722Z,6.91
2019-03-15T00:29:27.316Z,7.02
2019-03-15T00:29:27.918Z,7.01
2019-03-15T00:29:28.517Z,6.98
2019-03-15T00:30:22.505Z,6.91
2019-03-15T00:30:23.082Z,6.94
2019-03-15T00:30:23.679Z,7.02
2019-03-15T00:30:24.300Z,6.91
2019-03-15T00:30:24.880Z,6.94
2019-03-15T00:30:25.481Z,6.98
2019-03-15T00:30:26.080Z,7.01
2019-03-15T00:31:19.547Z,6.84
2019-03-15T00:31:20.117Z,6.99
2019-03-15T00:31:20.717Z,6.98
2019-03-15T00:31:21.335Z,6.84
2019-03-15T00:31:21.920Z,7.01
2019-03-15T00:31:22.518Z,6.98
2019-03-15T00:31:23.121Z,6.87
2019-03-15T00:31:23.725Z,6.95
2019-03-15T00:32:17.196Z,6.86
2019-03-15T00:32:17.770Z,6.86
2019-03-15T00:32:18.369Z,6.89
2019-03-15T00:32:18.970Z,6.97
2019-03-15T00:32:19.568Z,6.91
2019-03-15T00:32:20.170Z,6.95
2019-03-15T00:32:20.769Z,6.90
2019-03-15T00:32:21.371Z,6.95
2019-03-15T00:33:14.847Z,7.02
2019-03-15T00:33:15.423Z,6.95
2019-03-15T00:33:16.026Z,6.99
2019-03-15T00:33:16.622Z,7.01
2019-03-15T00:33:17.222Z,6.99
2019-03-15T00:33:17.821Z,6.90
2019-03-15T00:33:18.420Z,6.94
2019-03-15T00:33:19.023Z,7.02
2019-03-15T00:34:13.522Z,6.95
2019-03-15T00:34:14.097Z,6.98
2019-03-15T00:34:14.697Z,7.02
2019-03-15T00:34:15.465Z,7.02
2019-03-15T00:34:16.651Z,6.97
2019-03-15T00:34:16.727Z,6.94
2019-03-15T00:34:17.097Z,6.97
2019-03-15T00:34:17.696Z,6.97
2019-03-15T00:35:12.199Z,6.97
2019-03-15T00:35:12.773Z,6.98
2019-03-15T00:35:13.373Z,6.94
2019-03-15T00:35:13.973Z,6.91
2019-03-15T00:35:14.572Z,6.94
2019-03-15T00:35:15.174Z,7.01
2019-03-15T00:35:15.771Z,6.94
2019-03-15T00:35:16.375Z,6.94
2019-03-15T00:36:10.875Z,6.97
2019-03-15T00:36:11.449Z,6.95
2019-03-15T00:36:12.050Z,6.99
2019-03-15T00:36:12.648Z,6.89
2019-03-15T00:36:13.251Z,7.05
2019-03-15T00:36:13.849Z,6.95
2019-03-15T00:36:14.448Z,6.90
2019-03-15T00:36:15.049Z,7.02
2019-03-15T00:37:08.530Z,7.05
2019-03-15T00:37:09.102Z,6.98
2019-03-15T00:37:09.702Z,7.07
2019-03-15T00:37:10.301Z,6.97
2019-03-15T00:37:10.941Z,6.97
2019-03-15T00:37:11.502Z,6.95
2019-03-15T00:37:12.101Z,6.91
2019-03-15T00:37:12.702Z,7.01
2019-03-15T00:38:07.202Z,7.02
2019-03-15T00:38:07.778Z,7.02
2019-03-15T00:38:08.376Z,7.09
2019-03-15T00:38:08.977Z,6.97
2019-03-15T00:38:09.577Z,7.05
2019-03-15T00:38:10.182Z,7.04
2019-03-15T00:38:10.777Z,7.04
2019-03-15T00:38:11.375Z,7.04
2019-03-15T00:39:05.878Z,7.05
2019-03-15T00:39:06.452Z,6.98
2019-03-15T00:39:07.052Z,7.05
2019-03-15T00:39:07.652Z,7.05
2019-03-15T00:39:08.255Z,7.02
2019-03-15T00:39:08.854Z,7.05
2019-03-15T00:39:09.452Z,7.02
2019-03-15T00:39:10.053Z,7.01
2019-03-15T00:40:04.556Z,7.08
2019-03-15T00:40:05.128Z,7.02
2019-03-15T00:40:05.733Z,6.97
2019-03-15T00:40:06.328Z,7.02
2019-03-15T00:40:06.930Z,7.01
2019-03-15T00:40:07.528Z,7.01
2019-03-15T00:40:08.130Z,7.05
2019-03-15T00:40:08.727Z,7.07
2019-03-15T00:41:03.230Z,7.04
2019-03-15T00:41:03.804Z,7.05
2019-03-15T00:41:04.404Z,7.07
2019-03-15T00:41:05.005Z,7.12
2019-03-15T00:41:05.603Z,7.04
2019-03-15T00:41:06.207Z,7.05
2019-03-15T00:41:06.805Z,6.98
2019-03-15T00:41:07.404Z,7.07
2019-03-15T00:42:01.909Z,7.01
2019-03-15T00:42:02.480Z,7.04
2019-03-15T00:42:03.079Z,7.04
2019-03-15T00:42:03.680Z,6.97
2019-03-15T00:42:04.281Z,7.04
2019-03-15T00:42:04.882Z,6.99
2019-03-15T00:42:05.479Z,7.04
2019-03-15T00:42:06.080Z,6.98
2019-03-15T00:42:59.559Z,7.04
2019-03-15T00:43:00.134Z,7.04
2019-03-15T00:43:00.752Z,6.99
2019-03-15T00:43:01.333Z,7.02
2019-03-15T00:43:01.932Z,7.04
2019-03-15T00:43:02.532Z,7.07
2019-03-15T00:43:03.133Z,7.08
2019-03-15T00:43:03.732Z,7.01
2019-03-15T00:43:58.235Z,7.05
2019-03-15T00:43:58.809Z,7.05
2019-03-15T00:43:59.408Z,7.05
2019-03-15T00:44:00.008Z,6.97
2019-03-15T00:44:00.609Z,7.01
2019-03-15T00:44:01.211Z,6.99
2019-03-15T00:44:01.806Z,7.09
2019-03-15T00:44:02.408Z,7.02
2019-03-15T00:44:55.885Z,7.12
2019-03-15T00:44:56.461Z,7.07
2019-03-15T00:44:57.061Z,7.09
2019-03-15T00:44:57.660Z,7.09
2019-03-15T00:44:58.259Z,7.13
2019-03-15T00:44:58.860Z,7.19
2019-03-15T00:44:59.463Z,7.07
2019-03-15T00:45:00.061Z,7.07
2019-03-15T00:45:54.562Z,7.16
2019-03-15T00:45:55.138Z,7.17
2019-03-15T00:45:55.736Z,7.17
2019-03-15T00:45:56.337Z,7.16
2019-03-15T00:45:56.937Z,7.16
2019-03-15T00:45:57.539Z,7.20
2019-03-15T00:45:58.142Z,7.24
2019-03-15T00:45:58.904Z,7.20
2019-03-15T00:46:53.237Z,7.24
2019-03-15T00:46:53.811Z,7.26
2019-03-15T00:46:54.411Z,7.20
2019-03-15T00:46:55.012Z,7.22
2019-03-15T00:46:55.610Z,7.20
2019-03-15T00:46:56.215Z,7.27
2019-03-15T00:46:56.810Z,7.23
2019-03-15T00:46:57.417Z,7.26
2019-03-15T00:47:50.893Z,7.26
2019-03-15T00:47:51.467Z,7.23
2019-03-15T00:47:52.064Z,7.24
2019-03-15T00:47:52.663Z,7.19
2019-03-15T00:47:53.265Z,7.22
2019-03-15T00:47:53.870Z,7.19
2019-03-15T00:47:54.466Z,7.24
2019-03-15T00:47:55.062Z,7.24
2019-03-15T00:48:49.565Z,7.26
2019-03-15T00:48:50.141Z,7.31
2019-03-15T00:48:50.740Z,7.26
2019-03-15T00:48:51.339Z,7.22
2019-03-15T00:48:51.941Z,7.23
2019-03-15T00:48:52.543Z,7.23
2019-03-15T00:48:53.139Z,7.26
2019-03-15T00:48:53.896Z,7.23
2019-03-15T00:49:47.296Z,7.19
2019-03-15T00:49:47.791Z,7.20
2019-03-15T00:49:48.394Z,7.26
2019-03-15T00:49:48.992Z,7.20
2019-03-15T00:49:49.592Z,7.20
2019-03-15T00:49:50.197Z,7.22
2019-03-15T00:49:50.790Z,7.22
2019-03-15T00:49:51.391Z,7.22
2019-03-15T00:50:44.868Z,7.13
2019-03-15T00:50:45.443Z,7.24
2019-03-15T00:50:46.044Z,7.17
2019-03-15T00:50:46.649Z,7.20
2019-03-15T00:50:47.242Z,7.16
2019-03-15T00:50:47.844Z,7.22
2019-03-15T00:50:48.444Z,7.20
2019-03-15T00:50:49.044Z,7.24
2019-03-15T00:51:42.520Z,7.05
2019-03-15T00:51:43.098Z,7.15
2019-03-15T00:51:43.695Z,7.20
2019-03-15T00:51:44.296Z,7.15
2019-03-15T00:51:44.905Z,7.13
2019-03-15T00:51:45.497Z,7.13
2019-03-15T00:51:46.093Z,7.13
2019-03-15T00:51:46.696Z,7.08
2019-03-15T00:52:41.197Z,7.13
2019-03-15T00:52:41.770Z,7.09
2019-03-15T00:52:42.371Z,7.09
2019-03-15T00:52:42.969Z,7.15
2019-03-15T00:52:43.570Z,7.05
2019-03-15T00:52:44.169Z,7.08
2019-03-15T00:52:44.769Z,7.15
2019-03-15T00:52:45.369Z,7.16
2019-03-15T00:53:38.848Z,7.15
2019-03-15T00:53:39.421Z,7.15
2019-03-15T00:53:40.022Z,7.09
2019-03-15T00:53:40.622Z,7.15
2019-03-15T00:53:41.221Z,7.13
2019-03-15T00:53:41.821Z,7.23
2019-03-15T00:53:42.422Z,7.13
2019-03-15T00:53:43.021Z,7.13
2019-03-15T00:54:36.499Z,7.20
2019-03-15T00:54:37.075Z,7.22
2019-03-15T00:54:37.673Z,7.15
2019-03-15T00:54:38.274Z,7.24
2019-03-15T00:54:38.874Z,7.24
2019-03-15T00:54:39.479Z,7.16
2019-03-15T00:54:40.073Z,7.20
2019-03-15T00:54:40.674Z,7.13
2019-03-15T00:55:35.176Z,7.20
2019-03-15T00:55:35.748Z,7.20
2019-03-15T00:55:36.349Z,7.22
2019-03-15T00:55:36.948Z,7.26
2019-03-15T00:55:37.551Z,7.19
2019-03-15T00:55:38.148Z,7.23
2019-03-15T00:55:38.747Z,7.22
2019-03-15T00:55:39.350Z,7.26
2019-03-15T00:56:32.826Z,7.17
2019-03-15T00:56:33.402Z,7.19
2019-03-15T00:56:34.001Z,7.27
2019-03-15T00:56:34.605Z,7.20
2019-03-15T00:56:35.216Z,7.24
2019-03-15T00:56:35.800Z,7.19
2019-03-15T00:56:36.402Z,7.20
2019-03-15T00:56:37.000Z,7.24
2019-03-15T00:57:30.479Z,7.17
2019-03-15T00:57:31.054Z,7.23
2019-03-15T00:57:31.656Z,7.24
2019-03-15T00:57:32.253Z,7.20
2019-03-15T00:57:32.853Z,7.27
2019-03-15T00:57:33.460Z,7.27
2019-03-15T00:57:34.053Z,7.20
2019-03-15T00:57:34.652Z,7.20
2019-03-15T00:58:28.132Z,7.22
2019-03-15T00:58:28.706Z,7.24
2019-03-15T00:58:29.305Z,7.24
2019-03-15T00:58:29.905Z,7.22
2019-03-15T00:58:30.506Z,7.23
2019-03-15T00:58:31.108Z,7.23
2019-03-15T00:58:31.705Z,7.26
2019-03-15T00:58:32.306Z,7.20
2019-03-15T00:59:25.783Z,7.23
2019-03-15T00:59:26.357Z,7.24
2019-03-15T00:59:26.956Z,7.23
2019-03-15T00:59:27.599Z,7.27
2019-03-15T00:59:28.166Z,7.26
2019-03-15T00:59:28.763Z,7.23
2019-03-15T00:59:29.355Z,7.26
2019-03-15T00:59:29.956Z,7.29
2019-03-15T01:00:23.435Z,7.29
2019-03-15T01:00:24.008Z,7.19
2019-03-15T01:00:24.608Z,7.22
2019-03-15T01:00:25.207Z,7.22
2019-03-15T01:00:25.807Z,7.22
2019-03-15T01:00:26.410Z,7.20
2019-03-15T01:00:27.009Z,7.29
2019-03-15T01:00:27.608Z,7.22
2019-03-15T01:01:21.087Z,7.26
2019-03-15T01:01:21.659Z,7.23
2019-03-15T01:01:22.260Z,7.27
2019-03-15T01:01:22.860Z,7.23
2019-03-15T01:01:23.460Z,7.20
2019-03-15T01:01:24.063Z,7.24
2019-03-15T01:01:24.658Z,7.24
2019-03-15T01:01:25.260Z,7.23
2019-03-15T01:02:18.738Z,7.23
2019-03-15T01:02:19.315Z,7.26
2019-03-15T01:02:19.912Z,7.20
2019-03-15T01:02:20.511Z,7.24
2019-03-15T01:02:21.112Z,7.20
2019-03-15T01:02:21.715Z,7.22
2019-03-15T01:02:22.310Z,7.24
2019-03-15T01:02:22.915Z,7.31
2019-03-15T01:03:16.389Z,7.24
2019-03-15T01:03:16.964Z,7.22
2019-03-15T01:03:17.564Z,7.26
2019-03-15T01:03:18.163Z,7.24
2019-03-15T01:03:18.763Z,7.22
2019-03-15T01:03:19.363Z,7.26
2019-03-15T01:03:19.964Z,7.24
2019-03-15T01:03:20.563Z,7.27
2019-03-15T01:04:14.041Z,7.27
2019-03-15T01:04:14.615Z,7.22
2019-03-15T01:04:15.214Z,7.24
2019-03-15T01:04:15.814Z,7.22
2019-03-15T01:04:16.415Z,7.19
2019-03-15T01:04:17.018Z,7.23
2019-03-15T01:04:17.615Z,7.20
2019-03-15T01:04:18.214Z,7.22
2019-03-15T01:05:12.718Z,7.29
2019-03-15T01:05:13.291Z,7.29
2019-03-15T01:05:13.890Z,7.26
2019-03-15T01:05:14.490Z,7.23
2019-03-15T01:05:15.089Z,7.22
2019-03-15T01:05:15.690Z,7.24
2019-03-15T01:05:16.289Z,7.22
2019-03-15T01:05:16.890Z,7.17
2019-03-15T01:06:10.368Z,7.24
2019-03-15T01:06:10.945Z,7.26
2019-03-15T01:06:11.543Z,7.23
2019-03-15T01:06:12.149Z,7.26
2019-03-15T01:06:12.741Z,7.23
2019-03-15T01:06:13.342Z,7.24
2019-03-15T01:06:13.940Z,7.20
2019-03-15T01:06:14.539Z,7.23
2019-03-15T01:07:09.047Z,7.19
2019-03-15T01:07:09.617Z,7.22
2019-03-15T01:07:10.218Z,7.23
2019-03-15T01:07:10.816Z,7.20
2019-03-15T01:07:11.418Z,7.23
2019-03-15T01:07:12.017Z,7.22
2019-03-15T01:07:12.616Z,7.20
2019-03-15T01:07:13.216Z,7.19
2019-03-15T01:08:07.719Z,7.17
2019-03-15T01:08:08.293Z,7.17
2019-03-15T01:08:08.895Z,7.19
2019-03-15T01:08:09.493Z,7.24
2019-03-15T01:08:10.119Z,7.17
2019-03-15T01:08:11.474Z,7.16
2019-03-15T01:08:11.532Z,7.26
2019-03-15T01:08:11.893Z,7.17
2019-03-15T01:09:05.375Z,7.20
2019-03-15T01:09:05.946Z,7.29
2019-03-15T01:09:06.548Z,7.22
2019-03-15T01:09:07.146Z,7.20
2019-03-15T01:09:07.745Z,7.22
2019-03-15T01:09:08.345Z,7.29
2019-03-15T01:09:08.944Z,7.29
2019-03-15T01:09:09.544Z,7.20
2019-03-15T01:10:03.025Z,7.19
2019-03-15T01:10:03.598Z,7.29
2019-03-15T01:10:04.199Z,7.20
2019-03-15T01:10:04.797Z,7.27
2019-03-15T01:10:05.397Z,7.24
2019-03-15T01:10:05.996Z,7.23
2019-03-15T01:10:06.596Z,7.27
2019-03-15T01:10:07.196Z,7.29
2019-03-15T01:11:01.703Z,7.26
2019-03-15T01:11:02.272Z,7.26
2019-03-15T01:11:02.872Z,7.23
2019-03-15T01:11:03.472Z,7.20
2019-03-15T01:11:04.071Z,7.22
2019-03-15T01:11:04.671Z,7.23
2019-03-15T01:11:05.272Z,7.24
2019-03-15T01:11:05.872Z,7.20
2019-03-15T01:11:59.351Z,7.23
2019-03-15T01:11:59.927Z,7.24
2019-03-15T01:12:00.526Z,7.20
2019-03-15T01:12:01.125Z,7.26
2019-03-15T01:12:01.725Z,7.22
2019-03-15T01:12:02.326Z,7.24
2019-03-15T01:12:02.925Z,7.22
2019-03-15T01:12:03.524Z,7.29
2019-03-15T01:12:57.006Z,7.17
2019-03-15T01:12:57.579Z,7.24
2019-03-15T01:12:58.179Z,7.24
2019-03-15T01:12:58.783Z,7.23
2019-03-15T01:12:59.377Z,7.22
2019-03-15T01:12:59.976Z,7.22
2019-03-15T01:13:00.576Z,7.19
2019-03-15T01:13:01.176Z,7.29
2019-03-15T01:13:54.653Z,7.22
2019-03-15T01:13:55.231Z,7.24
2019-03-15T01:13:55.840Z,7.20
2019-03-15T01:13:56.427Z,7.24
2019-03-15T01:13:57.030Z,7.23
2019-03-15T01:13:57.627Z,7.22
2019-03-15T01:13:58.226Z,7.22
2019-03-15T01:13:58.826Z,7.19
2019-03-15T01:14:52.305Z,7.22
2019-03-15T01:14:52.880Z,7.24
2019-03-15T01:14:53.479Z,7.19
2019-03-15T01:14:54.180Z,7.23
2019-03-15T01:14:54.680Z,7.24
2019-03-15T01:14:55.279Z,7.20
2019-03-15T01:14:55.881Z,7.24
2019-03-15T01:14:56.479Z,7.20
2019-03-15T01:15:50.982Z,7.22
2019-03-15T01:15:51.556Z,7.22
2019-03-15T01:15:52.154Z,7.24
2019-03-15T01:15:52.754Z,7.26
2019-03-15T01:15:53.355Z,7.20
2019-03-15T01:15:53.953Z,7.27
2019-03-15T01:15:54.555Z,7.23
2019-03-15T01:15:55.154Z,7.22
2019-03-15T01:16:49.657Z,7.20
2019-03-15T01:16:50.233Z,7.26
2019-03-15T01:16:50.830Z,7.20
2019-03-15T01:16:51.431Z,7.26
2019-03-15T01:16:52.030Z,7.20
2019-03-15T01:16:52.629Z,7.26
2019-03-15T01:16:53.229Z,7.23
2019-03-15T01:16:53.831Z,7.23
2019-03-15T01:17:48.333Z,7.22
2019-03-15T01:17:48.907Z,7.27
2019-03-15T01:17:49.507Z,7.23
2019-03-15T01:17:50.107Z,7.24
2019-03-15T01:17:50.708Z,7.22
2019-03-15T01:17:51.306Z,7.24
2019-03-15T01:17:52.606Z,7.26
2019-03-15T01:17:52.673Z,7.23
2019-03-15T01:18:47.009Z,7.20
2019-03-15T01:18:47.583Z,7.24
2019-03-15T01:18:48.182Z,7.22
2019-03-15T01:18:48.781Z,7.26
2019-03-15T01:18:49.383Z,7.23
2019-03-15T01:18:50.002Z,7.20
2019-03-15T01:18:50.582Z,7.23
2019-03-15T01:18:51.184Z,7.24
2019-03-15T01:19:44.659Z,7.23
2019-03-15T01:19:45.236Z,7.22
2019-03-15T01:19:45.834Z,7.23
2019-03-15T01:19:46.435Z,7.19
2019-03-15T01:19:47.035Z,7.24
2019-03-15T01:19:47.634Z,7.22
2019-03-15T01:19:48.239Z,7.29
2019-03-15T01:19:48.843Z,7.24
2019-03-15T01:20:42.312Z,7.20
2019-03-15T01:20:42.886Z,7.24
2019-03-15T01:20:43.488Z,7.23
2019-03-15T01:20:44.086Z,7.26
2019-03-15T01:20:44.686Z,7.20
2019-03-15T01:20:45.286Z,7.24
2019-03-15T01:20:45.886Z,7.19
2019-03-15T01:20:46.487Z,7.23
2019-03-15T01:21:40.007Z,7.22
2019-03-15T01:21:40.537Z,7.22
2019-03-15T01:21:41.136Z,7.24
2019-03-15T01:21:41.737Z,7.23
2019-03-15T01:21:42.338Z,7.23
2019-03-15T01:21:42.937Z,7.20
2019-03-15T01:21:43.537Z,7.19
2019-03-15T01:21:44.200Z,7.22
2019-03-15T01:22:37.617Z,7.22
2019-03-15T01:22:38.191Z,7.27
2019-03-15T01:22:38.791Z,7.23
2019-03-15T01:22:39.390Z,7.23
2019-03-15T01:22:39.990Z,7.17
2019-03-15T01:22:40.595Z,7.22
2019-03-15T01:22:41.188Z,7.23
2019-03-15T01:22:41.789Z,7.22
2019-03-15T01:23:36.289Z,7.16
2019-03-15T01:23:36.866Z,7.19
2019-03-15T01:23:37.465Z,7.15
2019-03-15T01:23:38.066Z,7.20
2019-03-15T01:23:38.665Z,7.17
2019-03-15T01:23:39.265Z,7.17
2019-03-15T01:23:39.865Z,7.15
2019-03-15T01:23:40.468Z,7.22
2019-03-15T01:24:33.943Z,7.20
2019-03-15T01:24:34.519Z,7.15
2019-03-15T01:24:35.117Z,7.16
2019-03-15T01:24:35.717Z,7.17
2019-03-15T01:24:36.318Z,7.09
2019-03-15T01:24:36.918Z,7.17
2019-03-15T01:24:37.516Z,7.16
2019-03-15T01:24:38.119Z,7.16
2019-03-15T01:25:32.620Z,7.16
2019-03-15T01:25:33.192Z,7.17
2019-03-15T01:25:33.792Z,7.19
2019-03-15T01:25:34.394Z,7.15
2019-03-15T01:25:34.992Z,7.23
2019-03-15T01:25:35.593Z,7.13
2019-03-15T01:25:36.193Z,7.16
2019-03-15T01:25:36.792Z,7.13
2019-03-15T01:26:30.270Z,7.15
2019-03-15T01:26:30.845Z,7.17
2019-03-15T01:26:31.445Z,7.16
2019-03-15T01:26:32.044Z,7.16
2019-03-15T01:26:32.644Z,7.17
2019-03-15T01:26:33.243Z,7.23
2019-03-15T01:26:33.845Z,7.20
2019-03-15T01:26:34.444Z,7.17
2019-03-15T01:27:28.949Z,7.05
2019-03-15T01:27:29.520Z,7.20
2019-03-15T01:27:30.119Z,7.19
2019-03-15T01:27:30.721Z,7.19
2019-03-15T01:27:31.320Z,7.15
2019-03-15T01:27:31.920Z,7.24
2019-03-15T01:27:32.663Z,7.08
2019-03-15T01:27:33.119Z,7.15
2019-03-15T01:28:27.621Z,7.16
2019-03-15T01:28:28.196Z,7.15
2019-03-15T01:28:28.795Z,7.05
2019-03-15T01:28:29.394Z,7.12
2019-03-15T01:28:29.994Z,7.12
2019-03-15T01:28:30.595Z,7.07
2019-03-15T01:28:31.195Z,7.20
2019-03-15T01:28:31.795Z,7.15
2019-03-15T01:29:26.296Z,7.12
2019-03-15T01:29:26.872Z,7.15
2019-03-15T01:29:27.471Z,7.13
2019-03-15T01:29:28.071Z,7.17
2019-03-15T01:29:28.670Z,7.17
2019-03-15T01:29:29.271Z,7.09
2019-03-15T01:29:29.870Z,7.15
2019-03-15T01:29:30.470Z,7.15
2019-03-15T01:30:23.949Z,7.16
2019-03-15T01:30:24.525Z,7.13
2019-03-15T01:30:25.124Z,7.12
2019-03-15T01:30:25.724Z,7.16
2019-03-15T01:30:26.324Z,7.15
2019-03-15T01:30:26.922Z,7.15
2019-03-15T01:30:27.523Z,7.12
2019-03-15T01:30:28.122Z,7.19
2019-03-15T01:31:22.625Z,7.12
2019-03-15T01:31:23.201Z,7.09
2019-03-15T01:31:23.909Z,7.12
2019-03-15T01:31:24.411Z,7.19
2019-03-15T01:31:24.998Z,7.15
2019-03-15T01:31:25.598Z,7.08
2019-03-15T01:31:26.200Z,7.16
2019-03-15T01:31:26.797Z,7.12
2019-03-15T01:32:20.275Z,7.16
2019-03-15T01:32:20.851Z,7.12
2019-03-15T01:32:21.451Z,7.13
2019-03-15T01:32:22.049Z,7.15
2019-03-15T01:32:22.650Z,7.04
2019-03-15T01:32:23.252Z,7.12
2019-03-15T01:32:23.853Z,7.19
2019-03-15T01:32:24.450Z,7.16
2019-03-15T01:33:17.929Z,7.20
2019-03-15T01:33:18.504Z,7.13
2019-03-15T01:33:19.102Z,7.16
2019-03-15T01:33:19.703Z,7.09
2019-03-15T01:33:20.306Z,7.16
2019-03-15T01:33:20.903Z,7.15
2019-03-15T01:33:21.503Z,7.12
2019-03-15T01:33:22.102Z,7.15
2019-03-15T01:34:16.603Z,7.09
2019-03-15T01:34:17.178Z,7.17
2019-03-15T01:34:17.777Z,7.19
2019-03-15T01:34:18.377Z,7.17
2019-03-15T01:34:18.978Z,7.12
2019-03-15T01:34:19.584Z,7.15
2019-03-15T01:34:20.178Z,7.20
2019-03-15T01:34:20.777Z,7.12
2019-03-15T01:35:14.256Z,7.23
2019-03-15T01:35:14.834Z,7.20
2019-03-15T01:35:15.432Z,7.20
2019-03-15T01:35:16.031Z,7.20
2019-03-15T01:35:16.630Z,7.17
2019-03-15T01:35:17.229Z,7.17
2019-03-15T01:35:17.829Z,7.16
2019-03-15T01:35:18.429Z,7.19
2019-03-15T01:36:12.933Z,7.09
2019-03-15T01:36:13.505Z,7.17
2019-03-15T01:36:14.107Z,7.08
2019-03-15T01:36:14.705Z,7.16
2019-03-15T01:36:15.306Z,7.08
2019-03-15T01:36:15.905Z,7.20
2019-03-15T01:36:16.506Z,7.05
2019-03-15T01:36:17.105Z,7.15
2019-03-15T01:37:10.582Z,7.16
2019-03-15T01:37:11.159Z,7.13
2019-03-15T01:37:11.758Z,7.09
2019-03-15T01:37:12.357Z,7.16
2019-03-15T01:37:12.957Z,7.13
2019-03-15T01:37:13.557Z,7.13
2019-03-15T01:37:14.157Z,7.09
2019-03-15T01:37:14.901Z,7.17
2019-03-15T01:38:09.259Z,7.16
2019-03-15T01:38:09.834Z,7.19
2019-03-15T01:38:10.434Z,7.19
2019-03-15T01:38:11.035Z,7.13
2019-03-15T01:38:11.634Z,7.16
2019-03-15T01:38:12.234Z,7.16
2019-03-15T01:38:12.834Z,7.13
2019-03-15T01:38:13.435Z,7.13
2019-03-15T01:39:07.944Z,7.13
2019-03-15T01:39:08.506Z,7.08
2019-03-15T01:39:10.072Z,7.13
2019-03-15T01:39:10.159Z,7.15
2019-03-15T01:39:10.307Z,7.15
2019-03-15T01:39:10.913Z,7.07
2019-03-15T01:39:11.508Z,7.09
2019-03-15T01:39:12.105Z,7.09
2019-03-15T01:40:05.586Z,7.09
2019-03-15T01:40:06.161Z,7.09
2019-03-15T01:40:06.784Z,7.07
2019-03-15T01:40:07.360Z,7.12
2019-03-15T01:40:07.962Z,7.12
2019-03-15T01:40:08.560Z,7.09
2019-03-15T01:40:09.162Z,7.08
2019-03-15T01:40:09.788Z,7.13
2019-03-15T01:41:04.370Z,7.01
2019-03-15T01:41:04.836Z,7.09
2019-03-15T01:41:05.434Z,7.02
2019-03-15T01:41:06.035Z,7.08
2019-03-15T01:41:06.636Z,7.09
2019-03-15T01:41:07.235Z,7.13
2019-03-15T01:41:07.835Z,7.12
2019-03-15T01:41:08.434Z,7.13
2019-03-15T01:42:01.914Z,7.05
2019-03-15T01:42:02.487Z,6.97
2019-03-15T01:42:03.090Z,7.05
2019-03-15T01:42:03.690Z,7.01
2019-03-15T01:42:04.289Z,7.01
2019-03-15T01:42:04.888Z,7.04
2019-03-15T01:42:05.487Z,7.04
2019-03-15T01:42:06.087Z,6.97
2019-03-15T01:43:00.591Z,7.04
2019-03-15T01:43:01.163Z,7.04
2019-03-15T01:43:01.767Z,7.04
2019-03-15T01:43:02.368Z,7.08
2019-03-15T01:43:02.966Z,6.97
2019-03-15T01:43:03.562Z,7.05
2019-03-15T01:43:04.163Z,6.98
2019-03-15T01:43:04.834Z,7.02
2019-03-15T01:43:59.264Z,7.07
2019-03-15T01:43:59.838Z,7.07
2019-03-15T01:44:00.440Z,7.04
2019-03-15T01:44:01.038Z,7.02
2019-03-15T01:44:01.639Z,7.01
2019-03-15T01:44:02.238Z,7.05
2019-03-15T01:44:03.533Z,7.04
2019-03-15T01:44:03.629Z,7.01
2019-03-15T01:44:57.940Z,7.02
2019-03-15T01:44:58.514Z,6.99
2019-03-15T01:44:59.115Z,7.07
2019-03-15T01:44:59.715Z,7.04
2019-03-15T01:45:00.314Z,6.99
2019-03-15T01:45:00.917Z,6.97
2019-03-15T01:45:01.513Z,7.05
2019-03-15T01:45:02.116Z,6.98
2019-03-15T01:45:55.592Z,7.02
2019-03-15T01:45:56.165Z,7.05
2019-03-15T01:45:56.767Z,7.13
2019-03-15T01:45:57.370Z,7.04
2019-03-15T01:45:57.965Z,7.05
2019-03-15T01:45:58.566Z,7.08
2019-03-15T01:45:59.165Z,7.05
2019-03-15T01:45:59.766Z,7.09
2019-03-15T01:46:54.268Z,7.07
2019-03-15T01:46:54.842Z,7.02
2019-03-15T01:46:55.442Z,7.02
2019-03-15T01:46:56.042Z,7.04
2019-03-15T01:46:56.642Z,7.07
2019-03-15T01:46:57.241Z,6.99
2019-03-15T01:46:57.842Z,7.02
2019-03-15T01:46:59.310Z,7.07
2019-03-15T01:47:52.944Z,7.07
2019-03-15T01:47:53.517Z,7.05
2019-03-15T01:47:54.120Z,7.05
2019-03-15T01:47:54.717Z,7.01
2019-03-15T01:47:55.317Z,6.98
2019-03-15T01:47:55.916Z,7.13
2019-03-15T01:47:56.517Z,7.02
2019-03-15T01:47:57.117Z,7.04
2019-03-15T01:48:51.618Z,7.02
2019-03-15T01:48:52.194Z,7.01
2019-03-15T01:48:52.793Z,6.97
2019-03-15T01:48:53.393Z,7.01
2019-03-15T01:48:53.994Z,7.05
2019-03-15T01:48:54.610Z,7.05
2019-03-15T01:48:55.193Z,7.13
2019-03-15T01:48:55.793Z,7.07
2019-03-15T01:49:50.295Z,7.02
2019-03-15T01:49:50.876Z,7.01
2019-03-15T01:49:51.469Z,7.05
2019-03-15T01:49:52.070Z,7.02
2019-03-15T01:49:52.669Z,7.02
2019-03-15T01:49:53.276Z,7.02
2019-03-15T01:49:53.872Z,7.01
2019-03-15T01:49:54.469Z,7.05
2019-03-15T01:50:47.948Z,6.97
2019-03-15T01:50:48.521Z,7.04
2019-03-15T01:50:49.942Z,7.08
2019-03-15T01:50:50.336Z,7.05
2019-03-15T01:50:50.421Z,7.01
2019-03-15T01:50:50.923Z,7.01
2019-03-15T01:50:51.523Z,7.02
2019-03-15T01:50:52.120Z,7.04
2019-03-15T01:51:45.605Z,7.01
2019-03-15T01:51:46.173Z,7.05
2019-03-15T01:51:46.773Z,7.05
2019-03-15T01:51:47.372Z,7.02
2019-03-15T01:51:47.972Z,7.05
2019-03-15T01:51:48.572Z,7.05
2019-03-15T01:51:49.194Z,7.04
2019-03-15T01:51:49.928Z,7.04
2019-03-15T01:52:44.275Z,7.01
2019-03-15T01:52:44.847Z,7.07
2019-03-15T01:52:45.448Z,7.04
2019-03-15T01:52:46.048Z,7.07
2019-03-15T01:52:46.647Z,7.01
2019-03-15T01:52:47.252Z,6.97
2019-03-15T01:52:47.848Z,7.05
2019-03-15T01:52:48.451Z,7.07
2019-03-15T01:53:42.950Z,7.08
2019-03-15T01:53:43.524Z,7.19
2019-03-15T01:53:44.124Z,7.12
2019-03-15T01:53:44.722Z,7.13
2019-03-15T01:53:45.324Z,7.07
2019-03-15T01:53:45.924Z,7.12
2019-03-15T01:53:46.523Z,7.16
2019-03-15T01:53:47.132Z,7.12
2019-03-15T01:54:40.602Z,7.16
2019-03-15T01:54:41.183Z,7.07
2019-03-15T01:54:41.776Z,7.09
2019-03-15T01:54:42.376Z,7.07
2019-03-15T01:54:42.977Z,7.13
2019-03-15T01:54:43.575Z,7.15
2019-03-15T01:54:44.178Z,7.09
2019-03-15T01:54:44.885Z,7.15
2019-03-15T01:55:38.257Z,7.22
2019-03-15T01:55:38.827Z,7.17
2019-03-15T01:55:39.428Z,7.22
2019-03-15T01:55:40.027Z,7.24
2019-03-15T01:55:40.629Z,7.20
2019-03-15T01:55:41.227Z,7.19
2019-03-15T01:55:41.828Z,7.20
2019-03-15T01:55:42.427Z,7.20
2019-03-15T01:56:35.906Z,7.26
2019-03-15T01:56:36.483Z,7.24
2019-03-15T01:56:37.080Z,7.24
2019-03-15T01:56:37.679Z,7.26
2019-03-15T01:56:38.282Z,7.23
2019-03-15T01:56:38.879Z,7.26
2019-03-15T01:56:39.481Z,7.26
2019-03-15T01:56:40.078Z,7.31
2019-03-15T01:57:34.582Z,7.24
2019-03-15T01:57:35.156Z,7.27
2019-03-15T01:57:35.754Z,7.24
2019-03-15T01:57:36.355Z,7.23
2019-03-15T01:57:36.955Z,7.22
2019-03-15T01:57:37.555Z,7.22
2019-03-15T01:57:38.154Z,7.22
2019-03-15T01:57:38.755Z,7.23
2019-03-15T01:58:33.255Z,7.26
2019-03-15T01:58:33.830Z,7.26
2019-03-15T01:58:34.432Z,7.24
2019-03-15T01:58:35.031Z,7.24
2019-03-15T01:58:35.630Z,7.32
2019-03-15T01:58:36.232Z,7.29
2019-03-15T01:58:36.829Z,7.23
2019-03-15T01:58:37.433Z,7.26
2019-03-15T01:59:30.909Z,7.17
2019-03-15T01:59:31.482Z,7.27
2019-03-15T01:59:32.082Z,7.26
2019-03-15T01:59:32.683Z,7.22
2019-03-15T01:59:33.282Z,7.22
2019-03-15T01:59:33.882Z,7.22
2019-03-15T01:59:34.483Z,7.23
2019-03-15T01:59:35.086Z,7.29
2019-03-15T02:00:28.561Z,7.26
2019-03-15T02:00:29.135Z,7.24
2019-03-15T02:00:29.734Z,7.31
2019-03-15T02:00:30.344Z,7.26
2019-03-15T02:00:30.936Z,7.27
2019-03-15T02:00:31.535Z,7.29
2019-03-15T02:00:32.133Z,7.22
2019-03-15T02:00:32.736Z,7.27
2019-03-15T02:01:27.237Z,7.24
2019-03-15T02:01:27.811Z,7.35
2019-03-15T02:01:28.409Z,7.26
2019-03-15T02:01:29.009Z,7.32
2019-03-15T02:01:30.754Z,7.29
2019-03-15T02:01:30.758Z,7.32
2019-03-15T02:01:31.029Z,7.34
2019-03-15T02:01:31.409Z,7.31
2019-03-15T02:02:25.910Z,7.34
2019-03-15T02:02:26.487Z,7.37
2019-03-15T02:02:27.085Z,7.34
2019-03-15T02:02:27.685Z,7.38
2019-03-15T02:02:28.289Z,7.35
2019-03-15T02:02:28.883Z,7.32
2019-03-15T02:02:29.487Z,7.31
2019-03-15T02:02:30.084Z,7.35
2019-03-15T02:03:24.588Z,7.31
2019-03-15T02:03:25.162Z,7.37
2019-03-15T02:03:25.760Z,7.31
2019-03-15T02:03:26.360Z,7.35
2019-03-15T02:03:26.961Z,7.34
2019-03-15T02:03:27.562Z,7.35
2019-03-15T02:03:28.164Z,7.40
2019-03-15T02:03:28.760Z,7.37
2019-03-15T02:04:23.264Z,7.32
2019-03-15T02:04:23.839Z,7.44
2019-03-15T02:04:24.438Z,7.38
2019-03-15T02:04:25.056Z,7.47
2019-03-15T02:04:25.639Z,7.37
2019-03-15T02:04:26.237Z,7.41
2019-03-15T02:04:26.837Z,7.37
2019-03-15T02:04:27.436Z,7.37